Flight Number: EUR1312 Duration: 3:40
Departure: Gatwick Airport (EGKK) at 06:00 Distance: 1344 Nm
Arrival: Istanbul / Ataturk (LTBA) at 09:40 Equipment: A330-200

Weather Information
London / Gatwick Airport, United Kingdom (EGKK) 51-09N 000-11W 0M Jan 21, 2019 - 07:20 AM EST / 2019.01.21 1220 UTC
Wind: Variable at 2 MPH (2 KT):0
Visibility: 3 mile(s):0
Sky conditions: mostly clear Weather: haze Temperature: 41 F (5 C) Dew Point: 35 F (2 C) Relative Humidity: 80% Pressure (altimeter): 30.21 in. Hg (1023 hPa)
ob: EGKK 211220Z VRB02KT 5000 HZ FEW031 05/02 Q1023 cycle: 12
Sunrise: 07:56 Sunset: 16:27 (UTC)

Istanbul / Ataturk, Turkey (LTBA) 40-58N 028-49E 37M Jan 21, 2019 - 07:20 AM EST / 2019.01.21 1220 UTC
Wind: from the N (010 degrees) at 16 MPH (14 KT) (direction variable):0
Visibility: 4 mile(s):0
Sky conditions: mostly cloudy Weather: light rain showers Temperature: 46 F (8 C) Dew Point: 42 F (6 C) Relative Humidity: 87% Pressure (altimeter): 30.06 in. Hg (1018 hPa)
ob: LTBA 211220Z 01014KT 350V070 8000 -SHRA SCT007 SCT022 BKN070 08/06 Q1018 NOSIG cycle: 12
Sunrise: 05:27 Sunset: 15:04 (UTC)

TAF:2019/01/21 12:03 TAF LTBA 211040Z 2112/2218 02012KT 9999 SCT035 BKN100 TEMPO 2112/2116 -SHRA SCT015 BKN030 TEMPO 2116/2120 -SHRA SCT015 BKN030 PROB40 TEMPO 2201/2205 4000 BR BECMG 2207/2210 09008KT CAVOK

Previous Pireps for this route
Date Aircraft Flight time Fuel used Landing rate On time
2013-03-24A330-2003.4241106-154No
2013-11-13A330-2003.42386800No
2015-04-09B74703.2169932-234Charter
2015-04-10CRJ7003.19112080Charter
2015-05-23B757-200PF04.0134471-645Charter
2016-01-27B7773.2067361-239Charter
2017-03-17A330-2003.25352730No
(pireps marked green are flown by you)

Route map